Alcot, South Carolina
Current Conditions -  °F | °C
As of 10:15 PM on Friday 21 Nov 2014 (Local Time) from KCDN Reporting Station
Clear Clear  
Wind Chill:   Ceiling: Unl
Heat Index:   Visibility: 10mi
Dew Point: -8°   Wind: 0mph
Humidity: 42%   Direction: NA
Pressure: 30.5"   Gusts: NA
Location:  34.2324°N, 80.2824°W
Report Text: KCDN 220315Z AUTO 00000KT 10SM CLR 04/M08 A3050 RMK AO2 TSNO
Loading
Personal Weather Stations






























Interactive Weather Map New forecast layout! Learn more

10-Day Weather Forecast

Advertisements
Track Severe Weather on mobile